Time;durP1;ratioP1;P1;durP2;ratioP2;P2;SDS_P1;SDS_P2;PMS_P1;PMS_P2;Temp;Humidity;BMP_temperature;BMP_pressure;BME280_temperature;BME280_humidity;BME280_pressure;Samples;Min_cycle;Max_cycle;Signal;HPM_P1;HPM_P2
2022/01/22 00:00:16;;;;;;;19.75;2.53;;;;;;;;;;5066509;28;20037;-76
2022/01/22 00:02:42;;;;;;;17.48;2.13;;;;;;;;;;5067361;28;20040;-76
2022/01/22 00:05:09;;;;;;;18.48;1.88;;;;;;;;;;5066915;28;20072;-76
2022/01/22 00:07:35;;;;;;;19.50;2.22;;;;;;;;;;5067697;28;20495;-76
2022/01/22 00:10:07;;;;;;;19.05;2.20;;;;;;;;;;5066361;28;20091;-76
2022/01/22 00:15:07;;;;;;;16.10;2.13;;;;;;;;;;5070515;28;20123;-76
2022/01/22 00:17:33;;;;;;;18.85;2.50;;;;;;;;;;5070459;28;20081;-76
2022/01/22 00:19:59;;;;;;;13.13;1.73;;;;;;;;;;5071491;28;20095;-76
2022/01/22 00:22:29;;;;;;;17.77;2.97;;;;;;;;;;5054262;28;20048;-76
2022/01/22 00:25:00;;;;;;;18.42;3.22;;;;;;;;;;5070678;28;20116;-76
2022/01/22 00:27:27;;;;;;;20.45;2.00;;;;;;;;;;5054874;28;20051;-76
2022/01/22 00:29:54;;;;;;;16.33;2.33;;;;;;;;;;5070614;28;20047;-76
2022/01/22 00:32:20;;;;;;;17.15;2.10;;;;;;;;;;5070658;28;20040;-76
2022/01/22 00:34:46;;;;;;;19.73;3.22;;;;;;;;;;5070702;28;20055;-76
2022/01/22 00:37:12;;;;;;;17.10;1.90;;;;;;;;;;5070514;28;20504;-76
2022/01/22 00:39:39;;;;;;;11.65;1.85;;;;;;;;;;5054032;28;20052;-76
2022/01/22 00:42:12;;;;;;;17.80;2.30;;;;;;;;;;5070220;28;20045;-76
2022/01/22 00:44:39;;;;;;;15.80;2.90;;;;;;;;;;5070732;28;20496;-76
2022/01/22 00:47:05;;;;;;;19.02;2.10;;;;;;;;;;5070187;28;20052;-76
2022/01/22 00:49:32;;;;;;;12.77;2.28;;;;;;;;;;5070460;28;20051;-76
2022/01/22 00:51:58;;;;;;;14.73;2.10;;;;;;;;;;5053302;28;20040;-76
2022/01/22 00:54:24;;;;;;;14.98;2.20;;;;;;;;;;5053461;28;20109;-76
2022/01/22 00:56:51;;;;;;;17.65;2.25;;;;;;;;;;5053693;28;20553;-77
2022/01/22 00:59:17;;;;;;;11.40;1.75;;;;;;;;;;5070050;28;20554;-76
2022/01/22 01:01:43;;;;;;;13.50;1.90;;;;;;;;;;5053758;28;20036;-77
2022/01/22 01:04:11;;;;;;;15.52;2.33;;;;;;;;;;5070093;28;20480;-76
2022/01/22 01:06:38;;;;;;;20.85;2.90;;;;;;;;;;5070408;28;20524;-76
2022/01/22 01:09:06;;;;;;;14.88;2.30;;;;;;;;;;5103180;28;20032;-76
2022/01/22 01:11:35;;;;;;;15.15;1.90;;;;;;;;;;5069785;28;20079;-76
2022/01/22 01:14:03;;;;;;;17.55;2.95;;;;;;;;;;5053455;28;20044;-76
2022/01/22 01:16:55;;;;;;;11.48;2.20;;;;;;;;;;5069491;28;20052;-76
2022/01/22 01:33:07;;;;;;;23.10;2.20;;;;;;;;;;5069352;28;20543;-76
2022/01/22 01:35:37;;;;;;;18.15;2.17;;;;;;;;;;5069575;28;20059;-76
2022/01/22 01:38:04;;;;;;;20.98;2.08;;;;;;;;;;5069166;28;20067;-76
2022/01/22 01:40:32;;;;;;;18.45;2.42;;;;;;;;;;5069620;28;20111;-76
2022/01/22 01:43:14;;;;;;;17.90;2.47;;;;;;;;;;5052824;28;20094;-76
2022/01/22 01:45:40;;;;;;;10.45;2.28;;;;;;;;;;5069360;28;20050;-76
2022/01/22 01:48:12;;;;;;;13.48;1.85;;;;;;;;;;5052534;28;20051;-76
2022/01/22 01:50:40;;;;;;;20.80;1.98;;;;;;;;;;5069180;28;20048;-76
2022/01/22 01:53:21;;;;;;;20.10;2.88;;;;;;;;;;5069113;28;20377;-76
2022/01/22 01:56:02;;;;;;;21.63;2.50;;;;;;;;;;5069237;28;20052;-76
2022/01/22 01:58:28;;;;;;;13.57;2.25;;;;;;;;;;5069069;28;20052;-76
2022/01/22 02:00:55;;;;;;;20.58;2.10;;;;;;;;;;5068826;28;20076;-76
2022/01/22 02:03:21;;;;;;;13.98;2.10;;;;;;;;;;5069020;28;20044;-76
2022/01/22 02:05:47;;;;;;;18.13;2.20;;;;;;;;;;5068839;28;20048;-76
2022/01/22 02:08:15;;;;;;;12.07;2.00;;;;;;;;;;5068817;28;20097;-77
2022/01/22 02:10:49;;;;;;;14.93;2.03;;;;;;;;;;5051951;28;20056;-76
2022/01/22 02:13:43;;;;;;;19.02;2.17;;;;;;;;;;5068838;28;20102;-76
2022/01/22 02:24:43;;;;;;;18.00;2.10;;;;;;;;;;5068227;28;20044;-76
2022/01/22 02:27:09;;;;;;;8.98;1.42;;;;;;;;;;5068006;28;20510;-76
2022/01/22 02:29:35;;;;;;;10.05;1.50;;;;;;;;;;5068644;28;20404;-77
2022/01/22 02:34:54;;;;;;;8.60;1.23;;;;;;;;;;5049005;28;20199;-76
2022/01/22 02:37:23;;;;;;;10.88;1.50;;;;;;;;;;5068319;28;20048;-76
2022/01/22 02:40:11;;;;;;;12.00;1.30;;;;;;;;;;5069746;28;20079;-76
2022/01/22 02:42:37;;;;;;;8.80;1.05;;;;;;;;;;5068597;28;20048;-76
2022/01/22 02:45:08;;;;;;;7.00;1.10;;;;;;;;;;5068310;28;20518;-76
2022/01/22 02:47:35;;;;;;;7.05;1.40;;;;;;;;;;5068451;28;20488;-76
2022/01/22 02:50:02;;;;;;;14.30;2.22;;;;;;;;;;5051248;28;20048;-76
2022/01/22 02:52:28;;;;;;;9.63;1.10;;;;;;;;;;5068045;28;20080;-76
2022/01/22 02:54:55;;;;;;;10.85;1.13;;;;;;;;;;5051755;28;20098;-76
2022/01/22 02:57:21;;;;;;;10.38;1.25;;;;;;;;;;5050854;28;20051;-76
2022/01/22 02:59:48;;;;;;;7.82;0.95;;;;;;;;;;5068433;28;20503;-76
2022/01/22 03:02:14;;;;;;;8.25;1.20;;;;;;;;;;5058942;28;20041;-76
2022/01/22 03:04:40;;;;;;;10.73;1.55;;;;;;;;;;5050173;28;20555;-76
2022/01/22 03:07:07;;;;;;;5.28;0.90;;;;;;;;;;5065956;28;20040;-76
2022/01/22 03:09:40;;;;;;;10.82;1.20;;;;;;;;;;5067824;28;20064;-76
2022/01/22 03:20:34;;;;;;;11.57;1.55;;;;;;;;;;5080905;28;20045;-76
2022/01/22 03:28:20;;;;;;;14.85;1.70;;;;;;;;;;5033326;28;20049;-76
2022/01/22 03:30:46;;;;;;;11.07;1.60;;;;;;;;;;5047991;28;20040;-76
2022/01/22 03:33:14;;;;;;;8.13;1.33;;;;;;;;;;5047420;28;20076;-76
2022/01/22 03:35:45;;;;;;;6.55;1.30;;;;;;;;;;5048923;28;20119;-76
2022/01/22 03:38:11;;;;;;;8.52;1.40;;;;;;;;;;5047442;28;20049;-77
2022/01/22 03:40:37;;;;;;;9.75;1.30;;;;;;;;;;5047478;28;20037;-76
2022/01/22 03:43:03;;;;;;;8.65;1.40;;;;;;;;;;5047244;28;20044;-76
2022/01/22 03:45:29;;;;;;;9.85;1.58;;;;;;;;;;5049372;28;20050;-77
2022/01/22 03:47:55;;;;;;;9.43;1.40;;;;;;;;;;5048736;28;20078;-76
2022/01/22 03:50:22;;;;;;;6.47;1.27;;;;;;;;;;5069123;28;20137;-76
2022/01/22 03:52:48;;;;;;;10.50;1.30;;;;;;;;;;5071016;28;20502;-76
2022/01/22 03:55:37;;;;;;;9.27;1.38;;;;;;;;;;5071092;28;20510;-76
2022/01/22 03:58:04;;;;;;;15.65;1.67;;;;;;;;;;5070813;28;20087;-76
2022/01/22 04:00:30;;;;;;;12.82;1.55;;;;;;;;;;5038252;28;20043;-76
2022/01/22 04:05:57;;;;;;;13.52;1.70;;;;;;;;;;5071558;28;20526;-76
2022/01/22 04:08:23;;;;;;;8.48;1.80;;;;;;;;;;5070861;28;20044;-76
2022/01/22 04:10:50;;;;;;;10.98;1.67;;;;;;;;;;5053724;28;20132;-76
2022/01/22 04:13:18;;;;;;;11.30;1.50;;;;;;;;;;5071059;28;20403;-76
2022/01/22 04:15:46;;;;;;;12.85;1.67;;;;;;;;;;5071213;28;20087;-76
2022/01/22 04:29:04;;;;;;;7.40;1.70;;;;;;;;;;5070527;28;20131;-76
2022/01/22 04:31:30;;;;;;;16.23;1.85;;;;;;;;;;5054236;28;20404;-76
2022/01/22 04:33:56;;;;;;;11.50;1.50;;;;;;;;;;5070964;28;20454;-76
2022/01/22 04:36:22;;;;;;;10.70;1.60;;;;;;;;;;5053785;28;20086;-76
2022/01/22 04:38:48;;;;;;;8.32;1.73;;;;;;;;;;5070525;28;20048;-76
2022/01/22 04:41:14;;;;;;;9.45;2.08;;;;;;;;;;5053454;28;20040;-76
2022/01/22 04:43:42;;;;;;;11.85;2.00;;;;;;;;;;5053821;28;20076;-76
2022/01/22 04:49:09;;;;;;;8.82;1.92;;;;;;;;;;5049697;28;20428;-76
2022/01/22 04:57:05;;;;;;;6.57;1.60;;;;;;;;;;5069941;28;20064;-76
2022/01/22 04:59:31;;;;;;;10.02;1.80;;;;;;;;;;5069185;28;20036;-76
2022/01/22 05:01:57;;;;;;;8.50;1.80;;;;;;;;;;5047973;28;20538;-76
2022/01/22 05:04:23;;;;;;;9.85;2.10;;;;;;;;;;5069057;28;20094;-76
2022/01/22 05:06:50;;;;;;;5.63;1.50;;;;;;;;;;5069004;28;20044;-76
2022/01/22 05:09:16;;;;;;;6.13;1.40;;;;;;;;;;5069079;28;20036;-76
2022/01/22 05:11:42;;;;;;;9.32;1.70;;;;;;;;;;5070304;28;20060;-77
2022/01/22 05:14:08;;;;;;;8.60;1.70;;;;;;;;;;5070065;28;20044;-76
2022/01/22 05:16:34;;;;;;;13.15;2.00;;;;;;;;;;5069847;28;20045;-76
2022/01/22 05:19:06;;;;;;;9.73;2.30;;;;;;;;;;5069907;28;20045;-76
2022/01/22 05:21:35;;;;;;;8.98;1.80;;;;;;;;;;5069921;28;20048;-76
2022/01/22 05:24:06;;;;;;;10.23;2.20;;;;;;;;;;5070755;28;20063;-76
2022/01/22 05:36:59;;;;;;;8.68;2.08;;;;;;;;;;5069458;28;20526;-76
2022/01/22 05:39:28;;;;;;;10.60;1.80;;;;;;;;;;5052459;28;20127;-76
2022/01/22 05:41:54;;;;;;;13.10;1.73;;;;;;;;;;5069800;28;20090;-76
2022/01/22 05:44:20;;;;;;;11.95;1.85;;;;;;;;;;5068857;28;20055;-76
2022/01/22 05:46:48;;;;;;;8.00;1.80;;;;;;;;;;5052780;28;20036;-76
2022/01/22 05:49:14;;;;;;;9.07;1.85;;;;;;;;;;5069041;28;20491;-76
2022/01/22 05:51:43;;;;;;;10.60;2.38;;;;;;;;;;5069221;28;20048;-76
2022/01/22 05:59:39;;;;;;;17.95;2.60;;;;;;;;;;5068992;28;20519;-76
2022/01/22 06:02:06;;;;;;;11.90;2.55;;;;;;;;;;5068736;28;20147;-76
2022/01/22 06:04:33;;;;;;;8.30;2.20;;;;;;;;;;5052307;28;20131;-76
2022/01/22 06:06:59;;;;;;;14.40;2.38;;;;;;;;;;5068933;28;20044;-76
2022/01/22 06:09:26;;;;;;;15.73;2.00;;;;;;;;;;5068597;28;20060;-76
2022/01/22 06:12:04;;;;;;;12.10;2.55;;;;;;;;;;5068363;28;20053;-76
2022/01/22 06:14:30;;;;;;;13.38;3.13;;;;;;;;;;5037362;28;20049;-76
2022/01/22 06:16:56;;;;;;;11.02;2.45;;;;;;;;;;5068500;28;20123;-76
2022/01/22 06:19:22;;;;;;;15.95;2.70;;;;;;;;;;5102227;28;20120;-76
2022/01/22 06:21:51;;;;;;;10.23;2.40;;;;;;;;;;5052091;28;20396;-76
2022/01/22 06:24:17;;;;;;;13.32;2.50;;;;;;;;;;5068298;28;20400;-76
2022/01/22 06:26:43;;;;;;;13.60;2.55;;;;;;;;;;5068692;28;20079;-76
2022/01/22 06:29:09;;;;;;;16.73;2.88;;;;;;;;;;5068797;28;20494;-76
2022/01/22 06:31:35;;;;;;;12.40;2.45;;;;;;;;;;5068533;28;20071;-76
2022/01/22 06:34:02;;;;;;;8.27;2.20;;;;;;;;;;5051975;28;20040;-76
2022/01/22 06:36:28;;;;;;;10.23;2.63;;;;;;;;;;5051144;28;20136;-76
2022/01/22 06:39:09;;;;;;;8.88;2.17;;;;;;;;;;5051699;28;20247;-76
2022/01/22 06:41:45;;;;;;;9.38;2.10;;;;;;;;;;5067773;28;20166;-76
2022/01/22 06:44:12;;;;;;;12.05;2.63;;;;;;;;;;5067883;28;20125;-76
2022/01/22 06:46:38;;;;;;;11.43;2.22;;;;;;;;;;5051884;28;20045;-76
2022/01/22 06:49:04;;;;;;;11.70;2.00;;;;;;;;;;5051451;28;20067;-76
2022/01/22 06:51:30;;;;;;;12.13;2.38;;;;;;;;;;5068061;28;20052;-76
2022/01/22 06:53:56;;;;;;;7.32;2.00;;;;;;;;;;5068080;28;20043;-76
2022/01/22 06:56:24;;;;;;;7.32;2.22;;;;;;;;;;5067539;28;20036;-76
2022/01/22 06:58:50;;;;;;;11.77;2.50;;;;;;;;;;5051808;28;20084;-76
2022/01/22 07:01:16;;;;;;;10.73;1.95;;;;;;;;;;5051135;28;20037;-77
2022/01/22 07:03:42;;;;;;;12.25;2.20;;;;;;;;;;5051888;28;20127;-76
2022/01/22 07:06:09;;;;;;;9.60;1.90;;;;;;;;;;5069226;28;20067;-76
2022/01/22 07:08:35;;;;;;;10.18;1.85;;;;;;;;;;5068161;28;20086;-76
2022/01/22 07:11:01;;;;;;;7.00;1.67;;;;;;;;;;5067817;28;20052;-76
2022/01/22 07:13:27;;;;;;;6.50;1.55;;;;;;;;;;5067581;28;20049;-76
2022/01/22 07:15:53;;;;;;;8.77;1.30;;;;;;;;;;5067770;28;20046;-76
2022/01/22 07:18:23;;;;;;;8.25;1.27;;;;;;;;;;5067204;28;20044;-76
2022/01/22 07:20:51;;;;;;;7.25;1.35;;;;;;;;;;5068207;28;20488;-76
2022/01/22 07:26:05;;;;;;;7.18;1.60;;;;;;;;;;5067859;28;20042;-76
2022/01/22 07:28:31;;;;;;;9.07;1.65;;;;;;;;;;5051071;28;20043;-76
2022/01/22 07:30:59;;;;;;;11.23;1.42;;;;;;;;;;5067905;28;20052;-76
2022/01/22 07:33:26;;;;;;;12.98;1.67;;;;;;;;;;5067641;28;20047;-76
2022/01/22 07:35:53;;;;;;;9.15;1.52;;;;;;;;;;5067875;28;20075;-76
2022/01/22 07:38:19;;;;;;;9.27;2.00;;;;;;;;;;5067519;28;20435;-76
2022/01/22 07:40:45;;;;;;;9.68;1.95;;;;;;;;;;5067761;28;20304;-77
2022/01/22 07:43:11;;;;;;;8.23;2.00;;;;;;;;;;5050608;28;20283;-76
2022/01/22 07:45:38;;;;;;;10.55;2.40;;;;;;;;;;5068003;28;20440;-76
2022/01/22 07:48:04;;;;;;;9.90;2.22;;;;;;;;;;5068966;28;20049;-76
2022/01/22 07:50:30;;;;;;;8.82;3.03;;;;;;;;;;5067762;28;20049;-76
2022/01/22 07:52:57;;;;;;;6.70;2.40;;;;;;;;;;5067962;28;20511;-76
2022/01/22 07:55:24;;;;;;;6.90;2.28;;;;;;;;;;5067370;28;20419;-76
2022/01/22 07:57:50;;;;;;;5.75;2.28;;;;;;;;;;5067116;28;20045;-76
2022/01/22 08:00:17;;;;;;;11.50;3.00;;;;;;;;;;5067529;28;20063;-76
2022/01/22 08:02:43;;;;;;;11.93;2.50;;;;;;;;;;5069091;28;20443;-76
2022/01/22 08:05:09;;;;;;;13.88;2.67;;;;;;;;;;5067128;28;20044;-76
2022/01/22 08:07:36;;;;;;;11.90;2.72;;;;;;;;;;5067534;28;20056;-76
2022/01/22 08:10:03;;;;;;;13.10;2.70;;;;;;;;;;5067355;28;20056;-76
2022/01/22 08:12:29;;;;;;;15.23;2.65;;;;;;;;;;5050053;28;20121;-76
2022/01/22 08:14:55;;;;;;;16.40;2.30;;;;;;;;;;5067785;28;20401;-76
2022/01/22 08:17:21;;;;;;;10.50;2.53;;;;;;;;;;5066840;28;20488;-76
2022/01/22 08:19:48;;;;;;;16.55;2.42;;;;;;;;;;5067731;28;20542;-76
2022/01/22 08:22:14;;;;;;;16.40;2.45;;;;;;;;;;5034210;28;20480;-76
2022/01/22 08:24:40;;;;;;;19.65;2.50;;;;;;;;;;5067342;28;20048;-76
2022/01/22 08:27:16;;;;;;;15.75;3.20;;;;;;;;;;5049934;28;20052;-76
2022/01/22 08:29:44;;;;;;;18.20;3.22;;;;;;;;;;5052176;28;20135;-77
2022/01/22 08:37:21;;;;;;;12.00;2.28;;;;;;;;;;5069992;28;20044;-77
2022/01/22 08:39:47;;;;;;;13.27;2.50;;;;;;;;;;5070540;28;20086;-77
2022/01/22 08:42:13;;;;;;;15.52;2.67;;;;;;;;;;5053720;28;20468;-76
2022/01/22 08:44:40;;;;;;;16.27;2.65;;;;;;;;;;5070679;28;20052;-77
2022/01/22 08:47:06;;;;;;;13.13;2.45;;;;;;;;;;5053839;28;20343;-76
2022/01/22 08:49:33;;;;;;;10.00;2.15;;;;;;;;;;5070966;28;20048;-76
2022/01/22 08:52:00;;;;;;;11.90;2.05;;;;;;;;;;5070657;28;20063;-76
2022/01/22 08:54:26;;;;;;;12.60;2.20;;;;;;;;;;5069821;28;20044;-75
2022/01/22 08:56:52;;;;;;;14.27;2.92;;;;;;;;;;5070172;28;20101;-76
2022/01/22 08:59:18;;;;;;;19.17;2.63;;;;;;;;;;5053242;28;20140;-77
2022/01/22 09:01:48;;;;;;;10.70;2.50;;;;;;;;;;5070632;28;20040;-76
2022/01/22 09:04:14;;;;;;;15.15;3.13;;;;;;;;;;5070144;28;20098;-76
2022/01/22 09:06:40;;;;;;;16.20;2.92;;;;;;;;;;5070008;28;20048;-77
2022/01/22 09:09:11;;;;;;;15.18;2.33;;;;;;;;;;5069712;28;20502;-76
2022/01/22 09:11:38;;;;;;;15.07;2.85;;;;;;;;;;5052643;28;20113;-77
2022/01/22 09:14:06;;;;;;;17.17;3.20;;;;;;;;;;5069850;28;20048;-76
2022/01/22 09:16:33;;;;;;;15.13;3.70;;;;;;;;;;5053168;28;20544;-76
2022/01/22 09:19:06;;;;;;;14.00;3.15;;;;;;;;;;5053230;28;20032;-76
2022/01/22 09:21:32;;;;;;;17.38;3.08;;;;;;;;;;5069432;28;20061;-76
2022/01/22 09:23:58;;;;;;;20.73;3.22;;;;;;;;;;5069994;28;20399;-76
2022/01/22 09:26:24;;;;;;;22.20;3.83;;;;;;;;;;5070703;28;20119;-76
2022/01/22 09:28:51;;;;;;;13.70;3.72;;;;;;;;;;5036908;28;20511;-76
2022/01/22 09:31:17;;;;;;;27.25;4.60;;;;;;;;;;5052840;28;20048;-76
2022/01/22 09:33:44;;;;;;;13.10;3.70;;;;;;;;;;5053163;28;20048;-76
2022/01/22 09:36:10;;;;;;;15.02;4.03;;;;;;;;;;5069220;28;20058;-76
2022/01/22 09:38:36;;;;;;;15.55;4.57;;;;;;;;;;5069636;28;20044;-76
2022/01/22 09:41:03;;;;;;;16.90;3.90;;;;;;;;;;5069716;28;20510;-76
2022/01/22 09:43:29;;;;;;;14.93;3.58;;;;;;;;;;5069233;28;20550;-76
2022/01/22 09:45:56;;;;;;;11.98;3.13;;;;;;;;;;5052504;28;20437;-76
2022/01/22 09:48:22;;;;;;;13.35;3.20;;;;;;;;;;5052280;28;20492;-76
2022/01/22 09:50:48;;;;;;;12.55;3.30;;;;;;;;;;5052795;28;20044;-76
2022/01/22 09:53:14;;;;;;;14.07;3.45;;;;;;;;;;5068839;28;20048;-76
2022/01/22 09:55:40;;;;;;;16.40;3.33;;;;;;;;;;5069006;28;20051;-76
2022/01/22 09:58:08;;;;;;;15.15;3.67;;;;;;;;;;5068933;28;20100;-76
2022/01/22 10:00:34;;;;;;;12.10;2.70;;;;;;;;;;5068627;28;20040;-76
2022/01/22 10:03:00;;;;;;;14.45;3.28;;;;;;;;;;5069347;28;20447;-76
2022/01/22 10:05:31;;;;;;;11.23;3.28;;;;;;;;;;5068403;28;20036;-76
2022/01/22 10:08:16;;;;;;;14.35;3.30;;;;;;;;;;5068834;28;20049;-76
2022/01/22 10:10:42;;;;;;;15.70;3.30;;;;;;;;;;5052093;28;20059;-76
2022/01/22 10:13:08;;;;;;;12.13;3.33;;;;;;;;;;5052059;28;20050;-76
2022/01/22 10:15:35;;;;;;;17.05;3.70;;;;;;;;;;5068725;28;20094;-76
2022/01/22 10:18:02;;;;;;;13.77;3.47;;;;;;;;;;5052007;28;20051;-76
2022/01/22 10:20:36;;;;;;;16.88;3.70;;;;;;;;;;5069668;28;20119;-76
2022/01/22 10:23:05;;;;;;;13.90;3.13;;;;;;;;;;5068940;28;20068;-76
2022/01/22 10:25:44;;;;;;;14.20;3.50;;;;;;;;;;5051421;28;20059;-77
2022/01/22 10:28:20;;;;;;;10.65;3.28;;;;;;;;;;5067868;28;20058;-76
2022/01/22 10:30:47;;;;;;;16.65;3.80;;;;;;;;;;5052142;28;20523;-77
2022/01/22 10:33:26;;;;;;;18.20;3.65;;;;;;;;;;5068456;28;20467;-76
2022/01/22 10:35:52;;;;;;;12.75;3.40;;;;;;;;;;5068853;28;20032;-77
2022/01/22 10:38:21;;;;;;;11.82;3.30;;;;;;;;;;5068081;28;20508;-76
2022/01/22 10:40:47;;;;;;;12.60;3.17;;;;;;;;;;5067936;28;20391;-77
2022/01/22 10:43:27;;;;;;;13.90;4.40;;;;;;;;;;5067578;28;20044;-76
2022/01/22 10:46:20;;;;;;;8.98;3.67;;;;;;;;;;5068570;28;20488;-76
2022/01/22 10:48:56;;;;;;;14.27;4.03;;;;;;;;;;5068404;28;20060;-76
2022/01/22 10:51:22;;;;;;;16.60;4.03;;;;;;;;;;5067679;28;20115;-76
2022/01/22 10:53:49;;;;;;;13.63;3.90;;;;;;;;;;5035175;28;20048;-76
2022/01/22 10:56:19;;;;;;;16.75;4.03;;;;;;;;;;5067708;28;20049;-76
2022/01/22 10:58:53;;;;;;;16.50;4.78;;;;;;;;;;5067531;28;20048;-76
2022/01/22 11:01:19;;;;;;;21.52;5.90;;;;;;;;;;5067749;28;20094;-77
2022/01/22 11:03:45;;;;;;;21.92;7.32;;;;;;;;;;5069782;28;20044;-76
2022/01/22 11:06:27;;;;;;;19.05;8.10;;;;;;;;;;5067925;28;20094;-77
2022/01/22 11:08:54;;;;;;;25.08;7.75;;;;;;;;;;5069645;28;20048;-77
2022/01/22 11:11:20;;;;;;;20.60;5.10;;;;;;;;;;5067455;28;20125;-77
2022/01/22 11:13:47;;;;;;;18.42;4.57;;;;;;;;;;5068010;28;20090;-76
2022/01/22 11:16:14;;;;;;;13.68;3.85;;;;;;;;;;5034221;28;20048;-76
2022/01/22 11:18:42;;;;;;;14.95;3.85;;;;;;;;;;5067828;28;20056;-76
2022/01/22 11:21:09;;;;;;;12.65;3.55;;;;;;;;;;5067960;28;20045;-76
2022/01/22 11:23:35;;;;;;;10.80;3.50;;;;;;;;;;5067985;28;20480;-76
2022/01/22 11:26:02;;;;;;;14.23;3.45;;;;;;;;;;5068717;28;20085;-77
2022/01/22 11:28:28;;;;;;;15.15;3.45;;;;;;;;;;5066705;28;20040;-76
2022/01/22 11:30:54;;;;;;;11.05;2.70;;;;;;;;;;5067767;28;20127;-76
2022/01/22 11:33:21;;;;;;;8.65;2.80;;;;;;;;;;5050665;28;20091;-76
2022/01/22 11:35:47;;;;;;;10.35;2.50;;;;;;;;;;5068070;28;20503;-77
2022/01/22 11:38:17;;;;;;;10.50;2.78;;;;;;;;;;5067508;28;20565;-77
2022/01/22 11:41:04;;;;;;;13.32;2.65;;;;;;;;;;5051261;28;20093;-76
2022/01/22 11:43:52;;;;;;;11.57;2.10;;;;;;;;;;5067683;28;20543;-76
2022/01/22 11:49:16;;;;;;;6.50;2.20;;;;;;;;;;5065531;28;20048;-76
2022/01/22 11:51:43;;;;;;;8.63;2.15;;;;;;;;;;5067513;28;20071;-76
2022/01/22 11:54:10;;;;;;;9.60;2.75;;;;;;;;;;5067809;28;20450;-76
2022/01/22 11:56:44;;;;;;;10.85;2.03;;;;;;;;;;5050685;28;20083;-76
2022/01/22 11:59:13;;;;;;;8.57;2.30;;;;;;;;;;5067282;28;20051;-76
2022/01/22 12:01:39;;;;;;;10.13;2.90;;;;;;;;;;5067216;28;20040;-76
2022/01/22 12:04:06;;;;;;;10.95;2.25;;;;;;;;;;5050841;28;20047;-76
2022/01/22 12:06:32;;;;;;;10.93;2.25;;;;;;;;;;5068333;28;20037;-76
2022/01/22 12:09:11;;;;;;;7.32;2.17;;;;;;;;;;5052353;28;20048;-76
2022/01/22 12:15:02;;;;;;;8.48;1.70;;;;;;;;;;5071012;28;20045;-76
2022/01/22 12:17:47;;;;;;;7.95;2.15;;;;;;;;;;5016307;28;20432;-76
2022/01/22 12:23:10;;;;;;;10.35;2.40;;;;;;;;;;5070928;28;20123;-76
2022/01/22 12:25:40;;;;;;;10.30;2.00;;;;;;;;;;5054142;28;20037;-76
2022/01/22 12:28:06;;;;;;;8.63;2.10;;;;;;;;;;5070823;28;20048;-76
2022/01/22 12:30:40;;;;;;;5.88;2.08;;;;;;;;;;5053746;28;20158;-76
2022/01/22 12:33:12;;;;;;;8.35;2.35;;;;;;;;;;5070049;28;20044;-76
2022/01/22 12:35:39;;;;;;;8.77;2.20;;;;;;;;;;5070512;28;20048;-76
2022/01/22 12:38:20;;;;;;;12.45;2.35;;;;;;;;;;5070605;28;20489;-76
2022/01/22 12:40:53;;;;;;;10.43;2.10;;;;;;;;;;5070972;28;20083;-76
2022/01/22 12:43:27;;;;;;;7.38;1.70;;;;;;;;;;5070614;28;20052;-76
2022/01/22 12:46:01;;;;;;;10.68;2.00;;;;;;;;;;5070799;28;20400;-76
2022/01/22 12:48:29;;;;;;;8.55;1.83;;;;;;;;;;5069854;28;20056;-76
2022/01/22 12:51:00;;;;;;;7.07;1.80;;;;;;;;;;5070193;28;20047;-76
2022/01/22 12:53:26;;;;;;;9.88;2.10;;;;;;;;;;5070113;28;20044;-76
2022/01/22 12:58:26;;;;;;;6.13;1.73;;;;;;;;;;5053206;28;20080;-76
2022/01/22 13:00:53;;;;;;;8.60;1.88;;;;;;;;;;5070658;28;20046;-76
2022/01/22 13:03:36;;;;;;;7.97;1.95;;;;;;;;;;5069527;28;20052;-76
2022/01/22 13:06:03;;;;;;;7.65;1.63;;;;;;;;;;5069824;28;20047;-76
2022/01/22 13:08:30;;;;;;;8.43;2.17;;;;;;;;;;5070100;28;20041;-76
2022/01/22 13:10:59;;;;;;;8.73;1.77;;;;;;;;;;5069950;28;20069;-76
2022/01/22 13:13:26;;;;;;;8.95;1.73;;;;;;;;;;5069619;28;20044;-76
2022/01/22 13:16:01;;;;;;;9.73;1.92;;;;;;;;;;5071369;28;20044;-77
2022/01/22 13:18:38;;;;;;;10.03;2.17;;;;;;;;;;5069526;28;20548;-76
2022/01/22 13:21:08;;;;;;;8.85;1.60;;;;;;;;;;5068717;28;20285;-76
2022/01/22 13:23:35;;;;;;;11.52;2.00;;;;;;;;;;5069965;28;20044;-76
2022/01/22 13:26:01;;;;;;;8.00;1.90;;;;;;;;;;5070223;28;20594;-76
2022/01/22 13:28:33;;;;;;;7.05;1.80;;;;;;;;;;5052980;28;20049;-76
2022/01/22 13:31:06;;;;;;;9.27;1.80;;;;;;;;;;5070250;28;20043;-76
2022/01/22 13:38:58;;;;;;;7.15;1.98;;;;;;;;;;5069318;28;20131;-76
2022/01/22 13:49:44;;;;;;;16.35;1.70;;;;;;;;;;5069345;28;20048;-76
2022/01/22 13:52:18;;;;;;;6.93;1.92;;;;;;;;;;5070595;28;20041;-76
2022/01/22 13:54:49;;;;;;;11.68;1.92;;;;;;;;;;5069384;28;20075;-76
2022/01/22 13:57:16;;;;;;;12.13;1.55;;;;;;;;;;5068407;28;20044;-76
2022/01/22 13:59:47;;;;;;;9.07;1.80;;;;;;;;;;5069140;28;20119;-76
2022/01/22 14:02:27;;;;;;;7.93;1.95;;;;;;;;;;5051926;28;20094;-76
2022/01/22 14:04:56;;;;;;;7.35;2.03;;;;;;;;;;5102819;28;20041;-76
2022/01/22 14:07:26;;;;;;;6.93;1.30;;;;;;;;;;5068479;28;20036;-76
2022/01/22 14:09:52;;;;;;;9.40;1.67;;;;;;;;;;5068700;28;20060;-76
2022/01/22 14:12:18;;;;;;;9.45;1.90;;;;;;;;;;5069702;28;20044;-76
2022/01/22 14:14:54;;;;;;;7.90;1.42;;;;;;;;;;5068984;28;20045;-76
2022/01/22 14:17:22;;;;;;;7.32;1.40;;;;;;;;;;5068389;28;20405;-76
2022/01/22 14:19:57;;;;;;;9.63;1.45;;;;;;;;;;5052494;28;20453;-76
2022/01/22 14:22:23;;;;;;;7.43;1.38;;;;;;;;;;5068455;28;20158;-76
2022/01/22 14:24:49;;;;;;;10.50;1.50;;;;;;;;;;5068540;28;20047;-76
2022/01/22 14:27:21;;;;;;;8.75;1.50;;;;;;;;;;5068282;28;20044;-76
2022/01/22 14:29:47;;;;;;;10.23;1.35;;;;;;;;;;5068097;28;20044;-76
2022/01/22 14:32:17;;;;;;;7.05;1.27;;;;;;;;;;5067988;28;20040;-76
2022/01/22 14:34:45;;;;;;;12.65;1.85;;;;;;;;;;5068640;28;20483;-76
2022/01/22 14:37:24;;;;;;;6.28;1.23;;;;;;;;;;5051990;28;20048;-76
2022/01/22 14:45:32;;;;;;;11.90;1.83;;;;;;;;;;5068010;28;20409;-76
2022/01/22 14:47:59;;;;;;;6.43;1.40;;;;;;;;;;5068584;28;20040;-77
2022/01/22 14:50:27;;;;;;;6.38;1.40;;;;;;;;;;5067887;28;20052;-77
2022/01/22 14:52:57;;;;;;;6.70;1.65;;;;;;;;;;5051577;28;20067;-77
2022/01/22 14:55:24;;;;;;;7.88;1.67;;;;;;;;;;5068168;28;20032;-77
2022/01/22 14:57:50;;;;;;;9.57;1.60;;;;;;;;;;5067704;28;20076;-77
2022/01/22 15:00:17;;;;;;;7.43;2.25;;;;;;;;;;5066903;28;20063;-77
2022/01/22 15:02:44;;;;;;;13.15;1.80;;;;;;;;;;5068036;28;20045;-77
2022/01/22 15:05:13;;;;;;;6.30;1.40;;;;;;;;;;5068174;28;20124;-76
2022/01/22 15:07:39;;;;;;;8.93;1.58;;;;;;;;;;5068034;28;20048;-77
2022/01/22 15:10:06;;;;;;;7.35;1.55;;;;;;;;;;5068228;28;20048;-76
2022/01/22 15:12:36;;;;;;;9.45;1.77;;;;;;;;;;5050850;28;20337;-77
2022/01/22 15:15:03;;;;;;;9.80;1.85;;;;;;;;;;5067904;28;20080;-77
2022/01/22 15:17:42;;;;;;;9.30;1.70;;;;;;;;;;5067771;28;20041;-76
2022/01/22 15:20:09;;;;;;;7.65;1.70;;;;;;;;;;5051470;28;20040;-76
2022/01/22 15:22:35;;;;;;;6.93;1.52;;;;;;;;;;5067467;28;20543;-76
2022/01/22 15:25:01;;;;;;;7.72;1.42;;;;;;;;;;5051185;28;20045;-76
2022/01/22 15:27:27;;;;;;;9.70;1.30;;;;;;;;;;5067709;28;20422;-76
2022/01/22 15:29:57;;;;;;;8.18;1.52;;;;;;;;;;5069419;28;20037;-76
2022/01/22 15:32:45;;;;;;;6.43;1.27;;;;;;;;;;5067283;28;20064;-76
2022/01/22 15:35:12;;;;;;;6.47;1.30;;;;;;;;;;5068272;28;20090;-76
2022/01/22 15:37:44;;;;;;;6.53;1.50;;;;;;;;;;5067753;28;20080;-76
2022/01/22 15:40:10;;;;;;;7.63;1.70;;;;;;;;;;5051284;28;20044;-76
2022/01/22 15:42:37;;;;;;;8.75;1.42;;;;;;;;;;5050721;28;20033;-76
2022/01/22 15:45:04;;;;;;;6.25;1.42;;;;;;;;;;5054259;28;20064;-76
2022/01/22 15:47:30;;;;;;;10.52;2.20;;;;;;;;;;5071499;28;20109;-76
2022/01/22 15:49:57;;;;;;;9.15;1.92;;;;;;;;;;5071672;28;20055;-76
2022/01/22 15:52:24;;;;;;;7.82;1.83;;;;;;;;;;5071314;28;20439;-76
2022/01/22 15:54:50;;;;;;;9.23;2.13;;;;;;;;;;5055047;28;20048;-76
2022/01/22 15:57:16;;;;;;;13.10;2.30;;;;;;;;;;5054295;28;20519;-76
2022/01/22 15:59:42;;;;;;;9.07;2.10;;;;;;;;;;5071532;28;20044;-76
2022/01/22 16:02:08;;;;;;;9.40;2.10;;;;;;;;;;5071588;28;20067;-76
2022/01/22 16:04:35;;;;;;;10.23;2.00;;;;;;;;;;5037998;28;20515;-76
2022/01/22 16:07:07;;;;;;;12.43;2.13;;;;;;;;;;5071533;28;20436;-77
2022/01/22 16:09:34;;;;;;;6.70;1.90;;;;;;;;;;5070867;28;20048;-76
2022/01/22 16:12:00;;;;;;;9.35;2.42;;;;;;;;;;5054565;28;20050;-76
2022/01/22 16:14:27;;;;;;;8.35;2.35;;;;;;;;;;5070864;28;20045;-76
2022/01/22 16:16:53;;;;;;;11.10;2.10;;;;;;;;;;5071415;28;20492;-76
2022/01/22 16:19:20;;;;;;;7.68;2.05;;;;;;;;;;5070791;28;20040;-76
2022/01/22 16:21:47;;;;;;;8.55;1.90;;;;;;;;;;5072353;28;20047;-76
2022/01/22 16:24:13;;;;;;;7.95;1.73;;;;;;;;;;5071207;28;20071;-76
2022/01/22 16:26:40;;;;;;;7.40;1.90;;;;;;;;;;5071848;28;20127;-76
2022/01/22 16:29:06;;;;;;;6.72;1.90;;;;;;;;;;5071303;28;20040;-76
2022/01/22 16:31:34;;;;;;;10.55;1.90;;;;;;;;;;5070129;28;20099;-76
2022/01/22 16:34:00;;;;;;;9.88;1.90;;;;;;;;;;5070552;28;20055;-76
2022/01/22 16:36:27;;;;;;;9.70;2.10;;;;;;;;;;5070043;28;20044;-76
2022/01/22 16:38:53;;;;;;;9.55;2.28;;;;;;;;;;5070360;28;20497;-76
2022/01/22 16:41:19;;;;;;;9.60;2.13;;;;;;;;;;5070185;28;20040;-76